sensor_id;sensor_type;location;lat;lon;timestamp;P1;durP1;ratioP1;P2;durP2;ratioP2
52940;SDS011;62001;53.366;6.636;2023-03-01T00:01:13;43.53;;;21.77;;
52940;SDS011;62001;53.366;6.636;2023-03-01T00:03:40;30.47;;;19.13;;
52940;SDS011;62001;53.366;6.636;2023-03-01T00:06:06;71.53;;;22.23;;
52940;SDS011;62001;53.366;6.636;2023-03-01T00:08:32;44.20;;;23.63;;
52940;SDS011;62001;53.366;6.636;2023-03-01T00:11:00;33.63;;;20.90;;
52940;SDS011;62001;53.366;6.636;2023-03-01T00:13:30;34.10;;;21.40;;
52940;SDS011;62001;53.366;6.636;2023-03-01T00:15:56;32.93;;;19.63;;
52940;SDS011;62001;53.366;6.636;2023-03-01T00:18:22;35.07;;;20.70;;
52940;SDS011;62001;53.366;6.636;2023-03-01T00:20:49;31.47;;;18.83;;
52940;SDS011;62001;53.366;6.636;2023-03-01T00:23:19;22.58;;;14.60;;
52940;SDS011;62001;53.366;6.636;2023-03-01T00:25:45;41.27;;;23.57;;
52940;SDS011;62001;53.366;6.636;2023-03-01T00:28:11;43.43;;;27.80;;
52940;SDS011;62001;53.366;6.636;2023-03-01T00:30:37;45.17;;;27.07;;
52940;SDS011;62001;53.366;6.636;2023-03-01T00:33:03;31.93;;;18.50;;
52940;SDS011;62001;53.366;6.636;2023-03-01T00:35:29;29.33;;;16.97;;
52940;SDS011;62001;53.366;6.636;2023-03-01T00:37:59;33.30;;;19.20;;
52940;SDS011;62001;53.366;6.636;2023-03-01T00:40:25;34.70;;;20.33;;
52940;SDS011;62001;53.366;6.636;2023-03-01T00:42:54;32.60;;;18.73;;
52940;SDS011;62001;53.366;6.636;2023-03-01T00:45:20;43.37;;;22.23;;
52940;SDS011;62001;53.366;6.636;2023-03-01T00:47:46;25.23;;;15.57;;
52940;SDS011;62001;53.366;6.636;2023-03-01T00:50:13;57.53;;;15.37;;
52940;SDS011;62001;53.366;6.636;2023-03-01T00:52:39;84.07;;;15.47;;
52940;SDS011;62001;53.366;6.636;2023-03-01T00:55:05;214.30;;;22.57;;
52940;SDS011;62001;53.366;6.636;2023-03-01T00:57:31;45.97;;;16.37;;
52940;SDS011;62001;53.366;6.636;2023-03-01T00:59:57;203.30;;;30.27;;
52940;SDS011;62001;53.366;6.636;2023-03-01T01:02:23;82.93;;;21.30;;
52940;SDS011;62001;53.366;6.636;2023-03-01T01:04:48;117.30;;;23.67;;
52940;SDS011;62001;53.366;6.636;2023-03-01T01:07:14;195.20;;;28.00;;
52940;SDS011;62001;53.366;6.636;2023-03-01T01:09:42;247.27;;;33.50;;
52940;SDS011;62001;53.366;6.636;2023-03-01T01:12:08;628.97;;;49.37;;
52940;SDS011;62001;53.366;6.636;2023-03-01T01:14:34;176.50;;;25.37;;
52940;SDS011;62001;53.366;6.636;2023-03-01T01:17:00;166.90;;;24.97;;
52940;SDS011;62001;53.366;6.636;2023-03-01T01:19:26;195.33;;;22.90;;
52940;SDS011;62001;53.366;6.636;2023-03-01T01:21:52;139.63;;;22.20;;
52940;SDS011;62001;53.366;6.636;2023-03-01T01:24:18;252.50;;;27.93;;
52940;SDS011;62001;53.366;6.636;2023-03-01T01:26:44;116.57;;;22.10;;
52940;SDS011;62001;53.366;6.636;2023-03-01T01:29:11;117.40;;;24.30;;
52940;SDS011;62001;53.366;6.636;2023-03-01T01:31:37;412.27;;;37.33;;
52940;SDS011;62001;53.366;6.636;2023-03-01T01:34:05;285.40;;;28.93;;
52940;SDS011;62001;53.366;6.636;2023-03-01T01:36:32;218.50;;;22.10;;
52940;SDS011;62001;53.366;6.636;2023-03-01T01:38:59;197.77;;;24.30;;
52940;SDS011;62001;53.366;6.636;2023-03-01T01:41:26;117.90;;;17.53;;
52940;SDS011;62001;53.366;6.636;2023-03-01T01:49:37;25.10;;;10.30;;
52940;SDS011;62001;53.366;6.636;2023-03-01T01:52:11;20.90;;;9.03;;
52940;SDS011;62001;53.366;6.636;2023-03-01T01:54:47;59.97;;;13.73;;
52940;SDS011;62001;53.366;6.636;2023-03-01T01:57:40;49.47;;;20.70;;
52940;SDS011;62001;53.366;6.636;2023-03-01T02:00:12;76.22;;;14.45;;
52940;SDS011;62001;53.366;6.636;2023-03-01T02:02:40;27.05;;;12.02;;
52940;SDS011;62001;53.366;6.636;2023-03-01T02:05:12;34.57;;;14.90;;
52940;SDS011;62001;53.366;6.636;2023-03-01T02:07:45;34.07;;;15.93;;
52940;SDS011;62001;53.366;6.636;2023-03-01T02:10:12;33.10;;;17.33;;
52940;SDS011;62001;53.366;6.636;2023-03-01T02:12:38;32.07;;;15.77;;
52940;SDS011;62001;53.366;6.636;2023-03-01T02:15:05;16.57;;;10.63;;
52940;SDS011;62001;53.366;6.636;2023-03-01T02:17:31;12.87;;;9.10;;
52940;SDS011;62001;53.366;6.636;2023-03-01T02:20:16;12.30;;;8.53;;
52940;SDS011;62001;53.366;6.636;2023-03-01T02:22:54;15.23;;;9.23;;
52940;SDS011;62001;53.366;6.636;2023-03-01T02:25:39;15.13;;;9.77;;
52940;SDS011;62001;53.366;6.636;2023-03-01T02:30:43;31.43;;;10.90;;
52940;SDS011;62001;53.366;6.636;2023-03-01T02:33:31;101.03;;;12.27;;
52940;SDS011;62001;53.366;6.636;2023-03-01T02:36:03;275.00;;;22.20;;
52940;SDS011;62001;53.366;6.636;2023-03-01T02:38:32;126.43;;;13.80;;
52940;SDS011;62001;53.366;6.636;2023-03-01T02:40:58;85.33;;;12.97;;
52940;SDS011;62001;53.366;6.636;2023-03-01T02:43:28;147.90;;;15.30;;
52940;SDS011;62001;53.366;6.636;2023-03-01T02:46:02;126.83;;;14.57;;
52940;SDS011;62001;53.366;6.636;2023-03-01T02:48:52;114.40;;;15.90;;
52940;SDS011;62001;53.366;6.636;2023-03-01T02:51:32;167.33;;;15.00;;
52940;SDS011;62001;53.366;6.636;2023-03-01T02:54:28;101.37;;;15.03;;
52940;SDS011;62001;53.366;6.636;2023-03-01T02:57:03;308.27;;;26.53;;
52940;SDS011;62001;53.366;6.636;2023-03-01T02:59:30;281.57;;;23.67;;
52940;SDS011;62001;53.366;6.636;2023-03-01T03:02:05;319.27;;;26.23;;
52940;SDS011;62001;53.366;6.636;2023-03-01T03:04:45;277.53;;;22.17;;
52940;SDS011;62001;53.366;6.636;2023-03-01T03:07:11;33.77;;;11.33;;
52940;SDS011;62001;53.366;6.636;2023-03-01T03:09:37;20.93;;;10.87;;
52940;SDS011;62001;53.366;6.636;2023-03-01T03:12:03;40.20;;;12.80;;
52940;SDS011;62001;53.366;6.636;2023-03-01T03:14:29;24.47;;;10.93;;
52940;SDS011;62001;53.366;6.636;2023-03-01T03:16:59;18.15;;;10.85;;
52940;SDS011;62001;53.366;6.636;2023-03-01T03:19:25;18.27;;;10.50;;
52940;SDS011;62001;53.366;6.636;2023-03-01T03:21:51;20.87;;;10.80;;
52940;SDS011;62001;53.366;6.636;2023-03-01T03:24:17;22.40;;;11.40;;
52940;SDS011;62001;53.366;6.636;2023-03-01T03:26:43;23.93;;;11.43;;
52940;SDS011;62001;53.366;6.636;2023-03-01T03:29:09;21.80;;;11.40;;
52940;SDS011;62001;53.366;6.636;2023-03-01T03:31:35;21.07;;;11.20;;
52940;SDS011;62001;53.366;6.636;2023-03-01T03:34:00;68.17;;;9.63;;
52940;SDS011;62001;53.366;6.636;2023-03-01T03:36:26;45.43;;;9.13;;
52940;SDS011;62001;53.366;6.636;2023-03-01T03:38:52;22.00;;;9.80;;
52940;SDS011;62001;53.366;6.636;2023-03-01T03:41:18;131.70;;;12.23;;
52940;SDS011;62001;53.366;6.636;2023-03-01T03:43:44;150.37;;;12.53;;
52940;SDS011;62001;53.366;6.636;2023-03-01T03:46:10;56.13;;;9.73;;
52940;SDS011;62001;53.366;6.636;2023-03-01T03:48:39;101.80;;;11.67;;
52940;SDS011;62001;53.366;6.636;2023-03-01T03:51:07;128.10;;;11.60;;
52940;SDS011;62001;53.366;6.636;2023-03-01T03:53:35;63.07;;;9.07;;
52940;SDS011;62001;53.366;6.636;2023-03-01T03:56:01;49.77;;;9.07;;
52940;SDS011;62001;53.366;6.636;2023-03-01T03:58:27;143.47;;;12.47;;
52940;SDS011;62001;53.366;6.636;2023-03-01T04:00:54;67.57;;;11.77;;
52940;SDS011;62001;53.366;6.636;2023-03-01T04:03:21;160.30;;;14.77;;
52940;SDS011;62001;53.366;6.636;2023-03-01T04:05:49;158.53;;;15.50;;
52940;SDS011;62001;53.366;6.636;2023-03-01T04:08:16;83.03;;;13.13;;
52940;SDS011;62001;53.366;6.636;2023-03-01T04:10:45;106.27;;;14.53;;
52940;SDS011;62001;53.366;6.636;2023-03-01T04:13:16;96.87;;;13.30;;
52940;SDS011;62001;53.366;6.636;2023-03-01T04:15:45;91.13;;;12.83;;
52940;SDS011;62001;53.366;6.636;2023-03-01T04:18:16;20.87;;;11.50;;
52940;SDS011;62001;53.366;6.636;2023-03-01T04:20:43;52.57;;;12.77;;
52940;SDS011;62001;53.366;6.636;2023-03-01T04:23:14;42.93;;;11.20;;
52940;SDS011;62001;53.366;6.636;2023-03-01T04:25:50;39.77;;;10.93;;
52940;SDS011;62001;53.366;6.636;2023-03-01T04:28:24;43.73;;;10.87;;
52940;SDS011;62001;53.366;6.636;2023-03-01T04:31:08;34.83;;;10.07;;
52940;SDS011;62001;53.366;6.636;2023-03-01T04:33:45;23.20;;;6.68;;
52940;SDS011;62001;53.366;6.636;2023-03-01T04:36:19;44.83;;;9.00;;
52940;SDS011;62001;53.366;6.636;2023-03-01T04:38:50;16.03;;;8.77;;
52940;SDS011;62001;53.366;6.636;2023-03-01T04:41:17;11.70;;;8.33;;
52940;SDS011;62001;53.366;6.636;2023-03-01T04:43:44;13.30;;;8.70;;
52940;SDS011;62001;53.366;6.636;2023-03-01T04:46:14;11.10;;;8.33;;
52940;SDS011;62001;53.366;6.636;2023-03-01T04:48:42;12.57;;;8.47;;
52940;SDS011;62001;53.366;6.636;2023-03-01T04:51:09;11.20;;;8.30;;
52940;SDS011;62001;53.366;6.636;2023-03-01T04:53:38;15.27;;;9.10;;
52940;SDS011;62001;53.366;6.636;2023-03-01T04:56:05;12.10;;;8.63;;
52940;SDS011;62001;53.366;6.636;2023-03-01T04:58:31;11.30;;;8.10;;
52940;SDS011;62001;53.366;6.636;2023-03-01T05:00:57;11.20;;;8.00;;
52940;SDS011;62001;53.366;6.636;2023-03-01T05:03:23;11.97;;;8.60;;
52940;SDS011;62001;53.366;6.636;2023-03-01T05:05:50;13.43;;;8.50;;
52940;SDS011;62001;53.366;6.636;2023-03-01T05:08:17;11.57;;;8.60;;
52940;SDS011;62001;53.366;6.636;2023-03-01T05:10:48;10.70;;;8.67;;
52940;SDS011;62001;53.366;6.636;2023-03-01T05:13:18;12.40;;;8.80;;
52940;SDS011;62001;53.366;6.636;2023-03-01T05:15:53;12.57;;;9.20;;
52940;SDS011;62001;53.366;6.636;2023-03-01T05:18:20;18.27;;;10.93;;
52940;SDS011;62001;53.366;6.636;2023-03-01T05:20:50;16.98;;;10.85;;
52940;SDS011;62001;53.366;6.636;2023-03-01T05:23:23;19.40;;;12.33;;
52940;SDS011;62001;53.366;6.636;2023-03-01T05:25:50;24.83;;;13.00;;
52940;SDS011;62001;53.366;6.636;2023-03-01T05:28:17;21.30;;;12.37;;
52940;SDS011;62001;53.366;6.636;2023-03-01T05:30:45;21.73;;;12.67;;
52940;SDS011;62001;53.366;6.636;2023-03-01T05:33:11;21.77;;;12.87;;
52940;SDS011;62001;53.366;6.636;2023-03-01T05:35:41;20.20;;;11.60;;
52940;SDS011;62001;53.366;6.636;2023-03-01T05:38:11;17.07;;;11.13;;
52940;SDS011;62001;53.366;6.636;2023-03-01T05:40:41;18.83;;;11.10;;
52940;SDS011;62001;53.366;6.636;2023-03-01T05:45:38;15.37;;;9.53;;
52940;SDS011;62001;53.366;6.636;2023-03-01T05:48:05;16.33;;;10.33;;
52940;SDS011;62001;53.366;6.636;2023-03-01T05:50:34;15.90;;;10.60;;
52940;SDS011;62001;53.366;6.636;2023-03-01T05:53:03;17.23;;;10.73;;
52940;SDS011;62001;53.366;6.636;2023-03-01T05:55:31;15.90;;;10.83;;
52940;SDS011;62001;53.366;6.636;2023-03-01T05:57:58;24.97;;;11.83;;
52940;SDS011;62001;53.366;6.636;2023-03-01T06:00:25;20.63;;;11.30;;
52940;SDS011;62001;53.366;6.636;2023-03-01T06:02:51;26.70;;;12.10;;
52940;SDS011;62001;53.366;6.636;2023-03-01T06:05:19;25.40;;;12.23;;
52940;SDS011;62001;53.366;6.636;2023-03-01T06:07:45;20.13;;;11.77;;
52940;SDS011;62001;53.366;6.636;2023-03-01T06:10:11;24.43;;;12.20;;
52940;SDS011;62001;53.366;6.636;2023-03-01T06:12:38;29.93;;;13.17;;
52940;SDS011;62001;53.366;6.636;2023-03-01T06:15:05;24.40;;;13.13;;
52940;SDS011;62001;53.366;6.636;2023-03-01T06:17:33;21.93;;;12.33;;
52940;SDS011;62001;53.366;6.636;2023-03-01T06:20:21;22.90;;;11.93;;
52940;SDS011;62001;53.366;6.636;2023-03-01T06:22:48;21.90;;;12.53;;
52940;SDS011;62001;53.366;6.636;2023-03-01T06:25:16;25.40;;;12.97;;
52940;SDS011;62001;53.366;6.636;2023-03-01T06:27:44;24.50;;;12.90;;
52940;SDS011;62001;53.366;6.636;2023-03-01T06:30:11;21.67;;;12.83;;
52940;SDS011;62001;53.366;6.636;2023-03-01T06:32:39;25.90;;;13.70;;
52940;SDS011;62001;53.366;6.636;2023-03-01T06:35:12;25.23;;;13.37;;
52940;SDS011;62001;53.366;6.636;2023-03-01T06:40:05;26.00;;;12.20;;
52940;SDS011;62001;53.366;6.636;2023-03-01T06:42:36;22.10;;;11.57;;
52940;SDS011;62001;53.366;6.636;2023-03-01T06:45:03;23.73;;;12.53;;
52940;SDS011;62001;53.366;6.636;2023-03-01T06:47:31;24.07;;;13.43;;
52940;SDS011;62001;53.366;6.636;2023-03-01T06:50:01;20.60;;;12.68;;
52940;SDS011;62001;53.366;6.636;2023-03-01T06:52:27;21.77;;;13.03;;
52940;SDS011;62001;53.366;6.636;2023-03-01T06:54:53;22.53;;;13.37;;
52940;SDS011;62001;53.366;6.636;2023-03-01T06:57:19;24.50;;;14.50;;
52940;SDS011;62001;53.366;6.636;2023-03-01T06:59:46;23.30;;;15.10;;
52940;SDS011;62001;53.366;6.636;2023-03-01T07:02:12;24.33;;;15.23;;
52940;SDS011;62001;53.366;6.636;2023-03-01T07:04:39;24.60;;;15.50;;
52940;SDS011;62001;53.366;6.636;2023-03-01T07:07:05;22.97;;;16.47;;
52940;SDS011;62001;53.366;6.636;2023-03-01T07:09:30;19.33;;;13.10;;
52940;SDS011;62001;53.366;6.636;2023-03-01T07:11:56;15.27;;;10.87;;
52940;SDS011;62001;53.366;6.636;2023-03-01T07:14:23;66.17;;;26.53;;
52940;SDS011;62001;53.366;6.636;2023-03-01T07:16:52;91.17;;;36.67;;
52940;SDS011;62001;53.366;6.636;2023-03-01T07:19:19;91.83;;;35.60;;
52940;SDS011;62001;53.366;6.636;2023-03-01T07:21:45;32.23;;;18.37;;
52940;SDS011;62001;53.366;6.636;2023-03-01T07:24:11;23.13;;;14.77;;
52940;SDS011;62001;53.366;6.636;2023-03-01T07:26:37;18.80;;;13.07;;
52940;SDS011;62001;53.366;6.636;2023-03-01T07:29:04;16.93;;;12.33;;
52940;SDS011;62001;53.366;6.636;2023-03-01T07:31:31;20.77;;;13.47;;
52940;SDS011;62001;53.366;6.636;2023-03-01T07:33:57;14.83;;;10.50;;
52940;SDS011;62001;53.366;6.636;2023-03-01T07:36:24;15.83;;;9.20;;
52940;SDS011;62001;53.366;6.636;2023-03-01T07:38:50;12.27;;;9.43;;
52940;SDS011;62001;53.366;6.636;2023-03-01T07:41:16;13.03;;;9.83;;
52940;SDS011;62001;53.366;6.636;2023-03-01T07:43:42;11.67;;;9.43;;
52940;SDS011;62001;53.366;6.636;2023-03-01T07:46:08;10.87;;;8.70;;
52940;SDS011;62001;53.366;6.636;2023-03-01T07:48:34;9.20;;;7.50;;
52940;SDS011;62001;53.366;6.636;2023-03-01T07:51:00;8.10;;;6.93;;
52940;SDS011;62001;53.366;6.636;2023-03-01T07:53:28;7.77;;;6.47;;
52940;SDS011;62001;53.366;6.636;2023-03-01T07:56:08;11.07;;;8.60;;
52940;SDS011;62001;53.366;6.636;2023-03-01T07:58:36;9.43;;;7.50;;
52940;SDS011;62001;53.366;6.636;2023-03-01T08:01:07;11.73;;;8.67;;
52940;SDS011;62001;53.366;6.636;2023-03-01T08:03:35;11.57;;;8.67;;
52940;SDS011;62001;53.366;6.636;2023-03-01T08:06:02;14.10;;;9.73;;
52940;SDS011;62001;53.366;6.636;2023-03-01T08:08:28;13.18;;;9.77;;
52940;SDS011;62001;53.366;6.636;2023-03-01T08:10:58;11.02;;;8.70;;
52940;SDS011;62001;53.366;6.636;2023-03-01T08:13:25;10.93;;;8.38;;
52940;SDS011;62001;53.366;6.636;2023-03-01T08:15:52;12.10;;;9.15;;
52940;SDS011;62001;53.366;6.636;2023-03-01T08:18:19;11.02;;;9.32;;
52940;SDS011;62001;53.366;6.636;2023-03-01T08:20:45;14.35;;;10.35;;
52940;SDS011;62001;53.366;6.636;2023-03-01T08:23:11;11.70;;;9.88;;
52940;SDS011;62001;53.366;6.636;2023-03-01T08:25:37;11.32;;;9.75;;
52940;SDS011;62001;53.366;6.636;2023-03-01T08:28:04;14.30;;;11.48;;
52940;SDS011;62001;53.366;6.636;2023-03-01T08:30:30;13.70;;;11.27;;
52940;SDS011;62001;53.366;6.636;2023-03-01T08:32:57;14.45;;;11.45;;
52940;SDS011;62001;53.366;6.636;2023-03-01T08:35:23;17.80;;;15.25;;
52940;SDS011;62001;53.366;6.636;2023-03-01T08:37:49;17.13;;;14.30;;
52940;SDS011;62001;53.366;6.636;2023-03-01T08:40:14;19.67;;;16.13;;
52940;SDS011;62001;53.366;6.636;2023-03-01T08:42:41;23.23;;;18.08;;
52940;SDS011;62001;53.366;6.636;2023-03-01T08:45:11;21.52;;;17.50;;
52940;SDS011;62001;53.366;6.636;2023-03-01T08:47:39;26.85;;;19.00;;
52940;SDS011;62001;53.366;6.636;2023-03-01T08:50:05;25.23;;;17.60;;
52940;SDS011;62001;53.366;6.636;2023-03-01T08:52:32;24.38;;;17.83;;
52940;SDS011;62001;53.366;6.636;2023-03-01T08:54:57;24.35;;;18.73;;
52940;SDS011;62001;53.366;6.636;2023-03-01T08:57:26;27.52;;;19.92;;
52940;SDS011;62001;53.366;6.636;2023-03-01T08:59:52;25.45;;;19.58;;
52940;SDS011;62001;53.366;6.636;2023-03-01T09:02:21;27.85;;;19.95;;
52940;SDS011;62001;53.366;6.636;2023-03-01T09:04:47;26.08;;;20.42;;
52940;SDS011;62001;53.366;6.636;2023-03-01T09:07:12;26.25;;;20.13;;
52940;SDS011;62001;53.366;6.636;2023-03-01T09:09:38;23.80;;;20.00;;
52940;SDS011;62001;53.366;6.636;2023-03-01T09:12:04;26.67;;;19.80;;
52940;SDS011;62001;53.366;6.636;2023-03-01T09:14:30;27.90;;;21.45;;
52940;SDS011;62001;53.366;6.636;2023-03-01T09:16:56;25.67;;;20.70;;
52940;SDS011;62001;53.366;6.636;2023-03-01T09:19:22;28.40;;;21.30;;
52940;SDS011;62001;53.366;6.636;2023-03-01T09:21:48;26.85;;;20.92;;
52940;SDS011;62001;53.366;6.636;2023-03-01T09:24:18;26.15;;;19.75;;
52940;SDS011;62001;53.366;6.636;2023-03-01T09:26:46;27.23;;;20.60;;
52940;SDS011;62001;53.366;6.636;2023-03-01T09:29:13;28.98;;;21.88;;
52940;SDS011;62001;53.366;6.636;2023-03-01T09:31:39;26.75;;;21.55;;
52940;SDS011;62001;53.366;6.636;2023-03-01T09:34:06;25.52;;;21.55;;
52940;SDS011;62001;53.366;6.636;2023-03-01T09:36:33;30.02;;;21.75;;
52940;SDS011;62001;53.366;6.636;2023-03-01T09:38:59;21.38;;;18.98;;
52940;SDS011;62001;53.366;6.636;2023-03-01T09:44:32;25.90;;;21.02;;
52940;SDS011;62001;53.366;6.636;2023-03-01T09:46:59;27.52;;;22.05;;
52940;SDS011;62001;53.366;6.636;2023-03-01T09:49:27;28.80;;;22.13;;
52940;SDS011;62001;53.366;6.636;2023-03-01T09:52:00;30.20;;;22.23;;
52940;SDS011;62001;53.366;6.636;2023-03-01T09:54:26;28.50;;;22.00;;
52940;SDS011;62001;53.366;6.636;2023-03-01T09:57:05;25.88;;;21.90;;
52940;SDS011;62001;53.366;6.636;2023-03-01T09:59:43;34.83;;;24.60;;
52940;SDS011;62001;53.366;6.636;2023-03-01T10:02:26;29.52;;;22.50;;
52940;SDS011;62001;53.366;6.636;2023-03-01T10:10:37;31.40;;;24.30;;
52940;SDS011;62001;53.366;6.636;2023-03-01T10:13:15;23.13;;;17.23;;
52940;SDS011;62001;53.366;6.636;2023-03-01T10:16:31;23.45;;;19.60;;
52940;SDS011;62001;53.366;6.636;2023-03-01T10:18:38;26.10;;;19.88;;
52940;SDS011;62001;53.366;6.636;2023-03-01T10:21:13;25.05;;;18.08;;
52940;SDS011;62001;53.366;6.636;2023-03-01T10:23:41;27.80;;;20.92;;
52940;SDS011;62001;53.366;6.636;2023-03-01T10:26:10;24.77;;;19.20;;
52940;SDS011;62001;53.366;6.636;2023-03-01T10:29:01;24.65;;;17.65;;
52940;SDS011;62001;53.366;6.636;2023-03-01T10:31:38;24.85;;;17.70;;
52940;SDS011;62001;53.366;6.636;2023-03-01T10:34:09;26.75;;;19.70;;
52940;SDS011;62001;53.366;6.636;2023-03-01T10:36:43;27.42;;;17.30;;
52940;SDS011;62001;53.366;6.636;2023-03-01T10:39:13;22.55;;;18.08;;
52940;SDS011;62001;53.366;6.636;2023-03-01T10:47:00;21.48;;;17.17;;
52940;SDS011;62001;53.366;6.636;2023-03-01T10:49:27;24.58;;;18.00;;
52940;SDS011;62001;53.366;6.636;2023-03-01T10:51:53;23.30;;;17.25;;
52940;SDS011;62001;53.366;6.636;2023-03-01T10:56:51;18.30;;;14.23;;
52940;SDS011;62001;53.366;6.636;2023-03-01T10:59:28;20.65;;;16.52;;
52940;SDS011;62001;53.366;6.636;2023-03-01T11:05:15;25.45;;;17.83;;
52940;SDS011;62001;53.366;6.636;2023-03-01T11:07:49;18.02;;;14.30;;
52940;SDS011;62001;53.366;6.636;2023-03-01T11:10:30;21.35;;;15.07;;
52940;SDS011;62001;53.366;6.636;2023-03-01T11:13:14;21.73;;;14.73;;
52940;SDS011;62001;53.366;6.636;2023-03-01T11:15:42;21.27;;;15.77;;
52940;SDS011;62001;53.366;6.636;2023-03-01T11:18:31;22.42;;;16.27;;
52940;SDS011;62001;53.366;6.636;2023-03-01T11:20:58;22.08;;;15.18;;
52940;SDS011;62001;53.366;6.636;2023-03-01T11:23:26;23.20;;;15.70;;
52940;SDS011;62001;53.366;6.636;2023-03-01T11:25:55;26.00;;;16.20;;
52940;SDS011;62001;53.366;6.636;2023-03-01T11:28:22;16.63;;;12.35;;
52940;SDS011;62001;53.366;6.636;2023-03-01T11:33:33;14.55;;;10.48;;
52940;SDS011;62001;53.366;6.636;2023-03-01T11:36:01;14.65;;;10.63;;
52940;SDS011;62001;53.366;6.636;2023-03-01T11:38:43;13.93;;;10.50;;
52940;SDS011;62001;53.366;6.636;2023-03-01T11:41:20;12.10;;;8.82;;
52940;SDS011;62001;53.366;6.636;2023-03-01T11:52:00;13.18;;;10.38;;
52940;SDS011;62001;53.366;6.636;2023-03-01T12:18:57;9.85;;;8.25;;
52940;SDS011;62001;53.366;6.636;2023-03-01T12:21:38;9.43;;;7.68;;
52940;SDS011;62001;53.366;6.636;2023-03-01T12:29:31;11.93;;;10.23;;
52940;SDS011;62001;53.366;6.636;2023-03-01T12:35:36;12.48;;;9.68;;
52940;SDS011;62001;53.366;6.636;2023-03-01T12:55:54;14.57;;;11.50;;
52940;SDS011;62001;53.366;6.636;2023-03-01T13:09:00;15.90;;;11.40;;
52940;SDS011;62001;53.366;6.636;2023-03-01T13:11:34;16.67;;;11.30;;
52940;SDS011;62001;53.366;6.636;2023-03-01T13:14:34;17.25;;;11.27;;
52940;SDS011;62001;53.366;6.636;2023-03-01T13:17:00;14.45;;;10.98;;
52940;SDS011;62001;53.366;6.636;2023-03-01T13:19:27;16.27;;;10.57;;
52940;SDS011;62001;53.366;6.636;2023-03-01T13:22:01;14.32;;;10.82;;
52940;SDS011;62001;53.366;6.636;2023-03-01T13:25:10;14.77;;;10.48;;
52940;SDS011;62001;53.366;6.636;2023-03-01T13:27:43;16.77;;;11.00;;
52940;SDS011;62001;53.366;6.636;2023-03-01T13:33:33;13.13;;;10.65;;
52940;SDS011;62001;53.366;6.636;2023-03-01T13:36:07;13.98;;;11.07;;
52940;SDS011;62001;53.366;6.636;2023-03-01T13:38:38;15.10;;;11.43;;
52940;SDS011;62001;53.366;6.636;2023-03-01T13:41:06;13.02;;;10.60;;
52940;SDS011;62001;53.366;6.636;2023-03-01T13:43:34;16.10;;;10.55;;
52940;SDS011;62001;53.366;6.636;2023-03-01T13:48:33;15.35;;;11.30;;
52940;SDS011;62001;53.366;6.636;2023-03-01T13:51:01;14.73;;;10.75;;
52940;SDS011;62001;53.366;6.636;2023-03-01T13:53:36;15.90;;;11.68;;
52940;SDS011;62001;53.366;6.636;2023-03-01T13:56:09;15.88;;;11.80;;
52940;SDS011;62001;53.366;6.636;2023-03-01T13:58:49;14.55;;;11.07;;
52940;SDS011;62001;53.366;6.636;2023-03-01T14:01:34;16.88;;;12.02;;
52940;SDS011;62001;53.366;6.636;2023-03-01T14:04:01;13.88;;;11.30;;
52940;SDS011;62001;53.366;6.636;2023-03-01T14:06:30;14.38;;;12.05;;
52940;SDS011;62001;53.366;6.636;2023-03-01T14:17:25;17.45;;;12.32;;
52940;SDS011;62001;53.366;6.636;2023-03-01T14:20:01;16.75;;;11.73;;
52940;SDS011;62001;53.366;6.636;2023-03-01T14:22:34;18.92;;;13.27;;
52940;SDS011;62001;53.366;6.636;2023-03-01T14:25:01;17.00;;;12.98;;
52940;SDS011;62001;53.366;6.636;2023-03-01T14:27:41;15.88;;;12.63;;
52940;SDS011;62001;53.366;6.636;2023-03-01T14:30:11;19.48;;;14.00;;
52940;SDS011;62001;53.366;6.636;2023-03-01T14:33:00;18.65;;;14.70;;
52940;SDS011;62001;53.366;6.636;2023-03-01T14:35:29;21.80;;;16.13;;
52940;SDS011;62001;53.366;6.636;2023-03-01T14:37:56;21.63;;;16.17;;
52940;SDS011;62001;53.366;6.636;2023-03-01T14:42:50;20.50;;;15.80;;
52940;SDS011;62001;53.366;6.636;2023-03-01T14:45:18;21.95;;;16.75;;
52940;SDS011;62001;53.366;6.636;2023-03-01T14:47:45;22.58;;;16.33;;
52940;SDS011;62001;53.366;6.636;2023-03-01T14:53:05;21.58;;;16.30;;
52940;SDS011;62001;53.366;6.636;2023-03-01T14:55:38;22.83;;;16.27;;
52940;SDS011;62001;53.366;6.636;2023-03-01T14:58:12;21.83;;;16.27;;
52940;SDS011;62001;53.366;6.636;2023-03-01T15:00:57;21.63;;;16.03;;
52940;SDS011;62001;53.366;6.636;2023-03-01T15:03:37;23.83;;;17.63;;
52940;SDS011;62001;53.366;6.636;2023-03-01T15:06:10;23.17;;;17.85;;
52940;SDS011;62001;53.366;6.636;2023-03-01T15:08:44;25.90;;;17.83;;
52940;SDS011;62001;53.366;6.636;2023-03-01T15:13:38;25.80;;;18.07;;
52940;SDS011;62001;53.366;6.636;2023-03-01T15:16:11;25.77;;;17.73;;
52940;SDS011;62001;53.366;6.636;2023-03-01T15:18:48;24.73;;;18.80;;
52940;SDS011;62001;53.366;6.636;2023-03-01T15:21:25;26.70;;;17.77;;
52940;SDS011;62001;53.366;6.636;2023-03-01T15:23:59;25.90;;;19.63;;
52940;SDS011;62001;53.366;6.636;2023-03-01T15:26:38;25.63;;;18.00;;
52940;SDS011;62001;53.366;6.636;2023-03-01T15:29:10;24.63;;;17.83;;
52940;SDS011;62001;53.366;6.636;2023-03-01T15:31:54;29.57;;;18.80;;
52940;SDS011;62001;53.366;6.636;2023-03-01T15:36:53;25.60;;;17.83;;
52940;SDS011;62001;53.366;6.636;2023-03-01T15:39:41;25.90;;;18.07;;
52940;SDS011;62001;53.366;6.636;2023-03-01T15:45:07;25.23;;;16.67;;
52940;SDS011;62001;53.366;6.636;2023-03-01T15:47:34;25.43;;;16.37;;
52940;SDS011;62001;53.366;6.636;2023-03-01T15:50:03;25.67;;;16.50;;
52940;SDS011;62001;53.366;6.636;2023-03-01T15:52:39;22.77;;;16.23;;
52940;SDS011;62001;53.366;6.636;2023-03-01T15:57:47;22.63;;;15.80;;
52940;SDS011;62001;53.366;6.636;2023-03-01T16:00:13;23.83;;;16.00;;
52940;SDS011;62001;53.366;6.636;2023-03-01T16:02:40;23.50;;;15.43;;
52940;SDS011;62001;53.366;6.636;2023-03-01T16:07:44;22.90;;;15.23;;
52940;SDS011;62001;53.366;6.636;2023-03-01T16:10:10;21.70;;;15.70;;
52940;SDS011;62001;53.366;6.636;2023-03-01T16:12:36;22.60;;;14.60;;
52940;SDS011;62001;53.366;6.636;2023-03-01T16:15:04;22.67;;;15.40;;
52940;SDS011;62001;53.366;6.636;2023-03-01T16:17:38;22.30;;;16.23;;
52940;SDS011;62001;53.366;6.636;2023-03-01T16:20:04;22.60;;;15.43;;
52940;SDS011;62001;53.366;6.636;2023-03-01T16:22:30;20.33;;;15.63;;
52940;SDS011;62001;53.366;6.636;2023-03-01T16:24:56;26.50;;;16.30;;
52940;SDS011;62001;53.366;6.636;2023-03-01T16:27:22;24.57;;;15.93;;
52940;SDS011;62001;53.366;6.636;2023-03-01T16:29:48;24.40;;;15.67;;
52940;SDS011;62001;53.366;6.636;2023-03-01T16:32:14;20.80;;;14.37;;
52940;SDS011;62001;53.366;6.636;2023-03-01T16:34:40;20.57;;;14.77;;
52940;SDS011;62001;53.366;6.636;2023-03-01T16:37:06;22.70;;;14.97;;
52940;SDS011;62001;53.366;6.636;2023-03-01T16:39:32;22.23;;;14.53;;
52940;SDS011;62001;53.366;6.636;2023-03-01T16:41:59;18.83;;;14.53;;
52940;SDS011;62001;53.366;6.636;2023-03-01T16:44:26;22.27;;;14.40;;
52940;SDS011;62001;53.366;6.636;2023-03-01T16:46:51;20.57;;;14.33;;
52940;SDS011;62001;53.366;6.636;2023-03-01T16:49:17;22.43;;;14.03;;
52940;SDS011;62001;53.366;6.636;2023-03-01T16:51:43;22.23;;;14.40;;
52940;SDS011;62001;53.366;6.636;2023-03-01T16:54:09;24.70;;;14.20;;
52940;SDS011;62001;53.366;6.636;2023-03-01T16:56:36;17.43;;;13.70;;